Time;durP1;ratioP1;P1;durP2;ratioP2;P2;SDS_P1;SDS_P2;PMS_P1;PMS_P2;Temp;Humidity;BMP_temperature;BMP_pressure;BME280_temperature;BME280_humidity;BME280_pressure;Samples;Min_cycle;Max_cycle;Signal;HPM_P1;HPM_P2
2021/05/18 00:02:07;;;;;;;;;;;20.70;33.70;;;;;;5068803;27;75390;-71
2021/05/18 00:04:32;;;;;;;;;;;20.70;33.80;;;;;;5068439;27;77901;-71
2021/05/18 00:06:58;;;;;;;;;;;20.60;33.90;;;;;;5068450;27;76929;-71
2021/05/18 00:12:08;;;;;;;;;;;20.50;33.80;;;;;;5053206;27;74946;-66
2021/05/18 00:14:35;;;;;;;;;;;20.60;34.00;;;;;;5053335;28;74893;-66
2021/05/18 00:17:01;;;;;;;;;;;20.50;34.00;;;;;;5052921;28;75234;-67
2021/05/18 00:19:27;;;;;;;;;;;20.50;34.00;;;;;;5052692;27;75059;-65
2021/05/18 00:21:52;;;;;;;;;;;20.50;34.00;;;;;;5034166;28;76458;-66
2021/05/18 00:24:18;;;;;;;;;;;20.50;33.80;;;;;;5052986;28;75151;-67
2021/05/18 00:26:44;;;;;;;;;;;20.50;34.00;;;;;;5067654;27;78012;-65
2021/05/18 00:29:10;;;;;;;;;;;20.40;34.10;;;;;;5067685;27;76621;-68
2021/05/18 00:31:35;;;;;;;;;;;20.50;34.20;;;;;;5034052;28;78473;-67
2021/05/18 00:34:02;;;;;;;;;;;20.40;34.20;;;;;;5052794;28;75244;-68
2021/05/18 00:36:28;;;;;;;;;;;20.40;34.10;;;;;;5034006;28;78326;-69
2021/05/18 00:38:53;;;;;;;;;;;20.40;34.10;;;;;;5052529;28;75174;-68
2021/05/18 00:41:19;;;;;;;;;;;20.30;34.10;;;;;;5052773;28;75279;-67
2021/05/18 00:43:44;;;;;;;;;;;20.30;34.20;;;;;;5034072;28;76883;-68
2021/05/18 00:46:11;;;;;;;;;;;20.20;34.40;;;;;;5052836;28;75159;-66
2021/05/18 00:48:37;;;;;;;;;;;20.20;35.20;;;;;;5034239;28;76358;-64
2021/05/18 00:51:05;;;;;;;;;;;20.10;35.50;;;;;;5033728;28;78104;-66
2021/05/18 00:53:31;;;;;;;;;;;20.00;36.10;;;;;;5052918;28;74517;-69
2021/05/18 00:58:28;;;;;;;;;;;20.00;36.20;;;;;;5049337;28;74995;-69
2021/05/18 01:00:58;;;;;;;;;;;20.00;35.70;;;;;;5052771;28;74472;-64
2021/05/18 01:03:23;;;;;;;;;;;19.90;35.70;;;;;;5053004;28;74363;-64
2021/05/18 01:08:34;;;;;;;;;;;19.90;36.50;;;;;;5052775;28;74696;-65
2021/05/18 01:11:00;;;;;;;;;;;19.80;36.50;;;;;;5052454;28;75225;-66
2021/05/18 01:13:28;;;;;;;;;;;19.70;37.00;;;;;;5052122;28;75017;-67
2021/05/18 01:15:53;;;;;;;;;;;19.70;37.40;;;;;;5052227;28;75423;-66
2021/05/18 01:18:21;;;;;;;;;;;19.70;37.70;;;;;;5033424;28;94898;-67
2021/05/18 01:21:00;;;;;;;;;;;19.70;38.40;;;;;;5033717;28;75236;-66
2021/05/18 01:23:25;;;;;;;;;;;19.60;38.30;;;;;;5053999;27;75303;-67
2021/05/18 01:25:52;;;;;;;;;;;19.50;38.30;;;;;;5055840;28;75225;-66
2021/05/18 01:28:17;;;;;;;;;;;19.50;38.80;;;;;;5036917;28;77698;-65
2021/05/18 01:30:43;;;;;;;;;;;19.50;38.80;;;;;;5036753;28;77600;-65
2021/05/18 01:33:09;;;;;;;;;;;19.40;39.40;;;;;;5037014;28;77528;-65
2021/05/18 01:35:35;;;;;;;;;;;19.40;39.40;;;;;;5055197;28;75164;-65
2021/05/18 01:38:04;;;;;;;;;;;19.40;39.30;;;;;;5036784;28;78158;-65
2021/05/18 01:43:08;;;;;;;;;;;19.30;39.10;;;;;;5052399;28;75123;-69
2021/05/18 01:45:34;;;;;;;;;;;19.30;39.40;;;;;;5055827;28;75273;-67
2021/05/18 01:48:02;;;;;;;;;;;19.30;38.80;;;;;;5036536;28;77909;-66
2021/05/18 01:50:28;;;;;;;;;;;19.20;38.80;;;;;;5036555;28;78078;-69
2021/05/18 01:52:54;;;;;;;;;;;19.20;38.90;;;;;;5036626;28;77504;-68
2021/05/18 01:56:00;;;;;;;;;;;19.20;38.60;;;;;;5036953;28;77577;-68
2021/05/18 01:58:12;;;;;;;;;;;19.20;38.90;;;;;;5050725;28;74613;-64
2021/05/18 02:00:39;;;;;;;;;;;19.10;38.40;;;;;;5055169;28;75133;-65
2021/05/18 02:03:05;;;;;;;;;;;19.10;38.40;;;;;;5055248;28;75361;-65
2021/05/18 02:05:35;;;;;;;;;;;19.00;38.50;;;;;;5036508;28;78293;-63
2021/05/18 02:08:02;;;;;;;;;;;19.00;38.60;;;;;;5036544;28;74385;-64
2021/05/18 02:10:28;;;;;;;;;;;18.90;38.70;;;;;;5035901;28;75271;-66
2021/05/18 02:12:54;;;;;;;;;;;18.80;38.80;;;;;;5036180;28;76871;-64
2021/05/18 02:18:31;;;;;;;;;;;18.60;38.90;;;;;;5054983;28;74834;-65
2021/05/18 02:26:21;;;;;;;;;;;18.40;39.30;;;;;;5054870;28;74732;-69
2021/05/18 02:28:46;;;;;;;;;;;18.40;39.40;;;;;;5054731;28;75151;-69
2021/05/18 02:31:12;;;;;;;;;;;18.40;39.30;;;;;;5036059;28;75445;-69
2021/05/18 02:33:38;;;;;;;;;;;18.30;39.50;;;;;;5035176;28;76606;-69
2021/05/18 02:36:04;;;;;;;;;;;18.30;39.50;;;;;;5034961;28;77574;-68
2021/05/18 02:38:30;;;;;;;;;;;18.30;39.50;;;;;;5035889;28;77819;-68
2021/05/18 02:40:56;;;;;;;;;;;18.30;39.40;;;;;;5054809;28;74526;-68
2021/05/18 02:43:26;;;;;;;;;;;18.20;39.40;;;;;;5035541;28;77461;-67
2021/05/18 02:51:20;;;;;;;;;;;18.20;39.30;;;;;;5054762;28;75019;-65
2021/05/18 02:53:46;;;;;;;;;;;18.10;39.00;;;;;;5054405;28;75003;-65
2021/05/18 02:58:53;;;;;;;;;;;18.10;38.90;;;;;;5051221;28;74323;-67
2021/05/18 03:01:19;;;;;;;;;;;18.10;39.00;;;;;;5053862;28;75514;-65
2021/05/18 03:03:44;;;;;;;;;;;18.20;39.00;;;;;;5035277;28;74610;-65
2021/05/18 03:06:10;;;;;;;;;;;18.20;38.70;;;;;;5054057;28;74433;-66
2021/05/18 03:08:38;;;;;;;;;;;18.20;38.90;;;;;;5053562;28;75351;-68
2021/05/18 03:11:04;;;;;;;;;;;18.20;38.90;;;;;;5035719;28;74689;-67
2021/05/18 03:13:29;;;;;;;;;;;18.20;39.00;;;;;;5053762;28;74366;-65
2021/05/18 03:15:55;;;;;;;;;;;18.10;39.00;;;;;;5054225;28;74453;-69
2021/05/18 03:18:20;;;;;;;;;;;18.10;39.20;;;;;;5053987;28;74548;-69
2021/05/18 03:20:46;;;;;;;;;;;18.00;39.70;;;;;;5034908;28;77463;-69
2021/05/18 03:23:12;;;;;;;;;;;18.00;39.80;;;;;;5069257;27;77339;-68
2021/05/18 03:25:37;;;;;;;;;;;18.00;40.20;;;;;;5053952;28;74515;-67
2021/05/18 03:28:03;;;;;;;;;;;17.90;40.50;;;;;;5053896;28;75214;-65
2021/05/18 03:35:42;;;;;;;;;;;17.80;41.20;;;;;;5054049;28;74892;-68
2021/05/18 03:40:52;;;;;;;;;;;17.70;41.10;;;;;;5050262;28;74450;-68
2021/05/18 03:48:41;;;;;;;;;;;17.60;41.00;;;;;;5049843;28;75079;-68
2021/05/18 03:48:57;;;;;;;;;;;17.60;41.10;;;;;;5053264;28;75065;-69
2021/05/18 04:18:55;;;;;;;;;;;17.10;42.70;;;;;;5053162;28;74949;-68
2021/05/18 04:38:37;;;;;;;;;;;16.90;43.20;;;;;;5049879;28;74951;-65
2021/05/18 04:38:46;;;;;;;;;;;16.80;43.50;;;;;;5053526;28;74932;-67
2021/05/18 04:51:43;;;;;;;;;;;16.70;43.90;;;;;;4989365;28;75134;-68
2021/05/18 04:55:26;;;;;;;;;;;16.70;43.90;;;;;;5019104;28;76271;-68
2021/05/18 04:59:51;;;;;;;;;;;16.70;44.00;;;;;;5056801;28;74574;-69
2021/05/18 05:15:42;;;;;;;;;;;16.70;44.60;;;;;;5052802;28;75084;-69
2021/05/18 05:18:08;;;;;;;;;;;16.60;44.80;;;;;;5037639;28;75495;-70
2021/05/18 05:20:35;;;;;;;;;;;16.60;44.80;;;;;;5070752;27;74475;-69
2021/05/18 05:23:01;;;;;;;;;;;16.60;44.90;;;;;;5056033;28;74455;-68
2021/05/18 05:25:27;;;;;;;;;;;16.60;44.90;;;;;;5037221;28;76677;-66
2021/05/18 05:27:52;;;;;;;;;;;16.50;45.10;;;;;;5056065;28;75002;-71
2021/05/18 05:30:18;;;;;;;;;;;16.50;45.00;;;;;;5055399;28;74538;-69
2021/05/18 05:32:44;;;;;;;;;;;16.50;45.10;;;;;;5055804;28;74449;-69
2021/05/18 05:35:10;;;;;;;;;;;16.50;45.30;;;;;;5036513;28;77803;-68
2021/05/18 05:37:36;;;;;;;;;;;16.50;45.20;;;;;;5055210;28;75218;-68
2021/05/18 05:40:02;;;;;;;;;;;16.50;45.20;;;;;;5070792;27;77303;-71
2021/05/18 05:42:28;;;;;;;;;;;16.50;45.20;;;;;;5037079;28;75475;-70
2021/05/18 05:44:54;;;;;;;;;;;16.50;45.30;;;;;;5055750;28;75244;-71
2021/05/18 05:47:19;;;;;;;;;;;16.60;45.50;;;;;;5055601;28;74522;-69
2021/05/18 05:49:45;;;;;;;;;;;16.60;45.60;;;;;;5056097;28;74536;-69
2021/05/18 05:52:17;;;;;;;;;;;16.60;45.60;;;;;;5055240;28;75674;-69
2021/05/18 05:54:43;;;;;;;;;;;16.70;45.70;;;;;;5036651;28;77134;-69
2021/05/18 05:57:09;;;;;;;;;;;16.70;45.50;;;;;;5055617;28;75396;-72
2021/05/18 05:59:34;;;;;;;;;;;16.70;45.70;;;;;;5070872;27;76077;-68
2021/05/18 06:02:02;;;;;;;;;;;16.70;45.50;;;;;;5055369;28;75263;-68
2021/05/18 06:04:28;;;;;;;;;;;16.70;45.80;;;;;;5036424;28;77365;-70
2021/05/18 06:06:53;;;;;;;;;;;16.70;45.90;;;;;;5055326;28;74394;-70
2021/05/18 06:09:19;;;;;;;;;;;16.70;45.90;;;;;;5069380;27;76895;-70
2021/05/18 06:12:04;;;;;;;;;;;16.80;46.00;;;;;;5054656;28;75392;-70
2021/05/18 06:42:00;;;;;;;;;;;17.70;44.40;;;;;;5054556;28;74407;-69
2021/05/18 06:50:08;;;;;;;;;;;17.90;43.70;;;;;;5054128;28;74971;-69
2021/05/18 06:52:33;;;;;;;;;;;18.10;43.60;;;;;;5052431;28;75043;-69
2021/05/18 06:54:59;;;;;;;;;;;18.20;43.20;;;;;;5035712;28;74474;-68
2021/05/18 06:57:25;;;;;;;;;;;18.40;42.70;;;;;;5035477;28;75329;-68
2021/05/18 07:00:13;;;;;;;;;;;18.50;42.50;;;;;;5035550;28;76422;-68
2021/05/18 07:02:40;;;;;;;;;;;18.70;42.10;;;;;;5053857;28;75260;-69
2021/05/18 07:05:13;;;;;;;;;;;18.70;41.80;;;;;;5035336;28;77716;-69
2021/05/18 07:07:39;;;;;;;;;;;18.70;41.90;;;;;;5034978;28;76131;-68
2021/05/18 07:10:05;;;;;;;;;;;18.90;41.70;;;;;;5053808;28;74542;-69
2021/05/18 07:12:31;;;;;;;;;;;19.00;41.40;;;;;;5054464;28;74507;-69
2021/05/18 07:15:00;;;;;;;;;;;19.20;41.10;;;;;;5053722;28;75226;-69
2021/05/18 07:17:26;;;;;;;;;;;19.40;40.60;;;;;;5054135;28;74464;-69
2021/05/18 07:19:51;;;;;;;;;;;19.40;40.30;;;;;;5034514;27;75643;-69
2021/05/18 07:22:17;;;;;;;;;;;19.40;40.30;;;;;;5034796;28;77236;-69
2021/05/18 07:24:43;;;;;;;;;;;19.40;40.50;;;;;;5053930;28;75221;-69
2021/05/18 07:27:09;;;;;;;;;;;19.30;40.30;;;;;;5035245;28;74762;-69
2021/05/18 07:29:35;;;;;;;;;;;19.20;40.30;;;;;;5035007;28;75638;-69
2021/05/18 07:32:00;;;;;;;;;;;19.10;40.10;;;;;;5034965;28;75835;-69
2021/05/18 07:34:26;;;;;;;;;;;19.10;40.00;;;;;;5053864;28;75426;-70
2021/05/18 07:36:51;;;;;;;;;;;19.00;39.80;;;;;;5034655;28;76891;-70
2021/05/18 07:39:17;;;;;;;;;;;19.00;40.00;;;;;;5043728;27;77186;-67
2021/05/18 07:41:43;;;;;;;;;;;19.00;39.90;;;;;;5066997;27;76555;-68
2021/05/18 07:44:09;;;;;;;;;;;19.10;39.80;;;;;;5074990;27;78021;-70
2021/05/18 07:46:38;;;;;;;;;;;19.10;39.80;;;;;;5083686;27;75394;-69
2021/05/18 07:49:11;;;;;;;;;;;19.20;39.40;;;;;;5051797;27;75098;-69
2021/05/18 07:51:54;;;;;;;;;;;19.30;39.20;;;;;;5055099;27;77961;-69
2021/05/18 07:59:54;;;;;;;;;;;19.50;39.10;;;;;;5072162;27;75037;-66
2021/05/18 08:07:42;;;;;;;;;;;19.70;38.80;;;;;;5073031;27;74933;-65
2021/05/18 08:10:12;;;;;;;;;;;19.70;38.70;;;;;;5051410;28;76714;-65
2021/05/18 08:12:38;;;;;;;;;;;19.80;38.20;;;;;;5045269;28;75133;-69
2021/05/18 08:21:36;;;;;;;;;;;19.90;38.20;;;;;;4995089;28;75224;-65
2021/05/18 09:41:53;;;;;;;;;;;22.70;34.50;;;;;;5048448;28;74919;-67
2021/05/18 09:49:09;;;;;;;;;;;23.00;33.60;;;;;;5056216;28;74924;-71
2021/05/18 10:34:23;;;;;;;;;;;25.60;31.40;;;;;;5055789;28;74479;-70
2021/05/18 10:36:49;;;;;;;;;;;25.60;31.40;;;;;;5054277;28;74642;-71
2021/05/18 10:39:25;;;;;;;;;;;25.90;31.00;;;;;;5036552;28;76231;-69
2021/05/18 10:41:51;;;;;;;;;;;25.90;31.10;;;;;;5035828;28;75558;-68
2021/05/18 10:44:17;;;;;;;;;;;26.20;31.50;;;;;;5036054;28;78052;-69
2021/05/18 10:46:47;;;;;;;;;;;26.50;30.40;;;;;;5054201;28;75134;-68
2021/05/18 10:49:14;;;;;;;;;;;26.80;30.20;;;;;;5035764;28;75885;-72
2021/05/18 10:51:49;;;;;;;;;;;27.20;29.60;;;;;;5035717;28;76417;-73
2021/05/18 10:54:18;;;;;;;;;;;27.20;28.90;;;;;;5054070;28;75280;-71
2021/05/18 10:56:57;;;;;;;;;;;27.20;29.30;;;;;;5034569;28;75538;-72
2021/05/18 10:59:46;;;;;;;;;;;27.50;29.20;;;;;;5036167;28;76465;-71
2021/05/18 11:02:19;;;;;;;;;;;27.70;28.00;;;;;;5045494;28;74530;-70
2021/05/18 11:04:51;;;;;;;;;;;27.90;28.70;;;;;;5054065;28;74939;-71
2021/05/18 11:07:20;;;;;;;;;;;28.30;27.20;;;;;;5035598;28;77060;-71
2021/05/18 11:09:46;;;;;;;;;;;28.50;27.70;;;;;;5053672;27;75223;-71
2021/05/18 11:12:16;;;;;;;;;;;29.00;27.20;;;;;;5036032;28;76319;-70
2021/05/18 11:14:43;;;;;;;;;;;29.30;26.90;;;;;;5035780;28;78361;-69
2021/05/18 11:17:15;;;;;;;;;;;29.90;26.60;;;;;;5053795;28;75513;-70
2021/05/18 11:20:03;;;;;;;;;;;30.40;26.10;;;;;;5035525;28;76044;-70
2021/05/18 11:25:28;;;;;;;;;;;31.40;24.60;;;;;;5054643;28;75022;-67
2021/05/18 11:27:54;;;;;;;;;;;32.50;23.80;;;;;;5035210;28;76147;-67
2021/05/18 11:30:26;;;;;;;;;;;33.30;23.00;;;;;;5035924;28;75420;-68
2021/05/18 11:32:55;;;;;;;;;;;34.00;21.80;;;;;;5035174;28;77305;-69
2021/05/18 11:35:21;;;;;;;;;;;35.20;21.60;;;;;;5053906;28;75157;-67
2021/05/18 11:37:57;;;;;;;;;;;36.40;20.30;;;;;;5035210;28;76101;-68
2021/05/18 11:40:22;;;;;;;;;;;37.20;19.90;;;;;;5035733;28;78387;-70
2021/05/18 11:42:48;;;;;;;;;;;38.00;18.50;;;;;;5053504;28;74482;-69
2021/05/18 11:45:16;;;;;;;;;;;38.70;18.20;;;;;;5053354;28;74594;-67
2021/05/18 11:47:43;;;;;;;;;;;38.90;18.00;;;;;;5030171;28;75771;-68
2021/05/18 11:50:19;;;;;;;;;;;39.90;17.60;;;;;;5021641;28;77403;-69
2021/05/18 11:52:44;;;;;;;;;;;40.80;16.80;;;;;;5034586;28;74594;-70
2021/05/18 11:55:24;;;;;;;;;;;40.70;16.80;;;;;;5033615;28;75408;-70
2021/05/18 11:57:53;;;;;;;;;;;40.90;16.70;;;;;;5051477;28;74980;-70
2021/05/18 12:00:22;;;;;;;;;;;41.50;15.80;;;;;;5051551;28;74919;-68
2021/05/18 12:02:47;;;;;;;;;;;42.10;15.80;;;;;;5051098;28;75203;-73
2021/05/18 12:05:14;;;;;;;;;;;42.90;16.20;;;;;;5033968;28;75581;-67
2021/05/18 12:07:40;;;;;;;;;;;43.20;14.50;;;;;;5033824;28;76995;-73
2021/05/18 12:10:06;;;;;;;;;;;42.80;15.00;;;;;;5034483;28;75534;-67
2021/05/18 12:12:35;;;;;;;;;;;42.50;15.00;;;;;;5053138;28;75353;-66
2021/05/18 12:15:01;;;;;;;;;;;43.00;15.80;;;;;;5053298;28;74887;-72
2021/05/18 12:17:27;;;;;;;;;;;44.30;14.80;;;;;;5053345;28;74924;-68
2021/05/18 12:19:52;;;;;;;;;;;44.30;14.80;;;;;;5053233;28;75227;-66
2021/05/18 12:22:18;;;;;;;;;;;44.90;14.60;;;;;;5053431;28;75235;-72
2021/05/18 12:24:44;;;;;;;;;;;45.10;14.80;;;;;;5052984;28;75045;-64
2021/05/18 12:27:10;;;;;;;;;;;45.70;13.40;;;;;;5035234;28;74557;-67
2021/05/18 12:29:52;;;;;;;;;;;45.00;14.40;;;;;;5034828;28;78035;-66
2021/05/18 12:32:21;;;;;;;;;;;45.60;14.50;;;;;;5034466;28;75835;-70
2021/05/18 12:34:48;;;;;;;;;;;46.40;14.00;;;;;;5033853;28;76919;-68
2021/05/18 12:37:15;;;;;;;;;;;47.30;14.20;;;;;;5052482;28;75183;-67
2021/05/18 12:39:42;;;;;;;;;;;47.50;13.80;;;;;;5034273;28;76983;-71
2021/05/18 12:42:12;;;;;;;;;;;48.20;13.30;;;;;;5052764;28;75166;-76
2021/05/18 12:44:52;;;;;;;;;;;47.60;13.90;;;;;;5053848;28;74469;-78
2021/05/18 12:47:27;;;;;;;;;;;47.40;13.80;;;;;;5052983;28;75754;-81
2021/05/18 12:49:53;;;;;;;;;;;47.90;13.80;;;;;;5034707;28;77197;-82
2021/05/18 12:52:19;;;;;;;;;;;48.80;13.10;;;;;;5034787;28;75737;-75
2021/05/18 12:54:49;;;;;;;;;;;48.80;12.60;;;;;;5035517;28;74599;-73
2021/05/18 12:57:20;;;;;;;;;;;49.00;13.50;;;;;;5035345;28;76190;-80
2021/05/18 13:00:08;;;;;;;;;;;49.40;13.40;;;;;;5052729;28;74951;-69
2021/05/18 13:02:34;;;;;;;;;;;49.50;13.60;;;;;;5041484;28;74611;-72
2021/05/18 13:05:04;;;;;;;;;;;50.30;13.20;;;;;;5033380;28;77087;-71
2021/05/18 13:07:29;;;;;;;;;;;50.20;12.90;;;;;;5052463;28;74725;-71
2021/05/18 13:10:09;;;;;;;;;;;50.00;12.70;;;;;;5033979;28;76232;-69
2021/05/18 13:12:34;;;;;;;;;;;50.00;13.10;;;;;;5052503;28;75199;-70
2021/05/18 13:15:01;;;;;;;;;;;50.40;13.30;;;;;;5052551;28;75172;-71
2021/05/18 13:17:28;;;;;;;;;;;50.00;13.00;;;;;;5033284;28;76246;-71
2021/05/18 13:19:57;;;;;;;;;;;49.80;13.40;;;;;;5036311;28;78323;-68
2021/05/18 13:22:24;;;;;;;;;;;50.70;12.30;;;;;;5037065;28;77426;-72
2021/05/18 13:27:33;;;;;;;;;;;50.90;12.90;;;;;;5055912;28;74851;-69
2021/05/18 13:29:59;;;;;;;;;;;50.90;12.90;;;;;;5055746;28;74875;-63
2021/05/18 13:32:25;;;;;;;;;;;50.30;12.60;;;;;;5036833;28;75549;-61
2021/05/18 13:34:50;;;;;;;;;;;49.70;13.00;;;;;;5056105;28;75041;-58
2021/05/18 13:37:16;;;;;;;;;;;49.50;13.30;;;;;;5054525;28;75556;-60
2021/05/18 13:39:41;;;;;;;;;;;49.00;13.60;;;;;;5054489;28;74633;-59
2021/05/18 13:42:07;;;;;;;;;;;49.90;12.80;;;;;;5037177;28;77413;-62
2021/05/18 13:44:33;;;;;;;;;;;49.50;13.00;;;;;;5054815;28;75369;-57
2021/05/18 13:46:59;;;;;;;;;;;49.10;13.20;;;;;;5054437;28;75144;-58
2021/05/18 13:49:25;;;;;;;;;;;49.30;13.50;;;;;;5055571;28;74458;-63
2021/05/18 13:51:51;;;;;;;;;;;50.20;12.90;;;;;;5055012;28;74471;-58
2021/05/18 13:54:16;;;;;;;;;;;50.00;13.00;;;;;;5055431;28;75328;-65
2021/05/18 13:56:42;;;;;;;;;;;50.00;12.90;;;;;;5055385;28;76477;-61
2021/05/18 13:59:08;;;;;;;;;;;49.90;13.20;;;;;;5020430;28;74468;-60
2021/05/18 14:01:33;;;;;;;;;;;49.70;13.30;;;;;;5028235;28;75264;-60
2021/05/18 14:03:59;;;;;;;;;;;49.90;13.20;;;;;;5055014;28;76269;-59
2021/05/18 14:06:24;;;;;;;;;;;50.50;13.30;;;;;;5055053;28;74946;-57
2021/05/18 14:08:50;;;;;;;;;;;51.20;12.60;;;;;;5054869;28;74947;-58
2021/05/18 14:11:19;;;;;;;;;;;50.50;13.10;;;;;;5054917;28;74454;-61
2021/05/18 14:13:49;;;;;;;;;;;50.90;13.00;;;;;;5036025;28;77205;-58
2021/05/18 14:16:18;;;;;;;;;;;50.80;12.90;;;;;;5054136;28;74413;-59
2021/05/18 14:18:45;;;;;;;;;;;50.20;13.30;;;;;;5055943;28;76136;-57
2021/05/18 14:21:11;;;;;;;;;;;50.00;13.40;;;;;;5036021;28;75516;-58
2021/05/18 14:26:18;;;;;;;;;;;49.90;13.30;;;;;;5053816;28;75070;-58
2021/05/18 14:28:44;;;;;;;;;;;50.60;13.20;;;;;;5036547;28;77308;-57
2021/05/18 14:31:10;;;;;;;;;;;50.60;13.40;;;;;;5054659;27;75304;-58
2021/05/18 14:33:36;;;;;;;;;;;51.00;13.30;;;;;;5055284;28;74506;-58
2021/05/18 14:36:02;;;;;;;;;;;50.40;13.30;;;;;;5054307;28;77149;-60
2021/05/18 14:38:28;;;;;;;;;;;47.50;14.20;;;;;;5035931;28;76025;-59
2021/05/18 14:56:59;;;;;;;;;;;40.40;17.50;;;;;;5054904;28;75241;-58
2021/05/18 14:59:25;;;;;;;;;;;39.20;18.20;;;;;;5053643;28;75299;-72
2021/05/18 15:01:50;;;;;;;;;;;39.10;18.40;;;;;;5035412;28;76900;-70
2021/05/18 15:04:16;;;;;;;;;;;38.10;18.90;;;;;;5054148;28;75030;-70
2021/05/18 15:06:42;;;;;;;;;;;36.90;19.80;;;;;;5035483;28;76730;-71
2021/05/18 15:09:07;;;;;;;;;;;36.10;20.30;;;;;;5035598;28;77574;-70
2021/05/18 15:11:33;;;;;;;;;;;35.40;21.20;;;;;;5034940;28;75880;-71
2021/05/18 15:13:59;;;;;;;;;;;35.00;21.60;;;;;;5054617;28;74504;-74
2021/05/18 15:16:25;;;;;;;;;;;34.80;21.70;;;;;;5054437;28;74517;-71
2021/05/18 15:18:52;;;;;;;;;;;34.60;22.30;;;;;;5035536;28;75378;-74
2021/05/18 15:21:18;;;;;;;;;;;34.70;22.00;;;;;;5035473;28;77134;-70
2021/05/18 15:23:44;;;;;;;;;;;34.40;22.50;;;;;;5034795;28;76498;-69
2021/05/18 15:26:10;;;;;;;;;;;34.10;22.40;;;;;;5054108;28;75537;-72
2021/05/18 15:28:36;;;;;;;;;;;34.00;22.80;;;;;;5035464;28;75516;-73
2021/05/18 15:31:01;;;;;;;;;;;34.30;22.60;;;;;;5035338;28;78427;-72
2021/05/18 15:33:27;;;;;;;;;;;34.40;22.60;;;;;;5035220;28;76316;-71
2021/05/18 15:35:53;;;;;;;;;;;34.00;23.10;;;;;;5053424;28;75167;-71
2021/05/18 15:38:19;;;;;;;;;;;33.70;23.90;;;;;;5034904;28;75304;-71
2021/05/18 15:40:45;;;;;;;;;;;33.50;23.70;;;;;;5034471;27;74633;-72
2021/05/18 15:43:11;;;;;;;;;;;33.50;23.90;;;;;;5034569;28;75314;-73
2021/05/18 15:45:37;;;;;;;;;;;33.40;24.30;;;;;;5052079;28;75710;-72
2021/05/18 15:48:04;;;;;;;;;;;33.10;24.40;;;;;;5051548;28;75006;-73
2021/05/18 15:50:30;;;;;;;;;;;33.10;24.30;;;;;;5052651;28;74489;-72
2021/05/18 15:52:55;;;;;;;;;;;33.10;24.40;;;;;;5052756;28;74837;-70
2021/05/18 15:55:21;;;;;;;;;;;33.30;24.50;;;;;;5053053;28;75164;-74
2021/05/18 15:57:47;;;;;;;;;;;33.10;24.70;;;;;;5034467;28;75168;-72
2021/05/18 16:00:12;;;;;;;;;;;32.90;24.50;;;;;;5034993;28;76063;-72
2021/05/18 16:02:38;;;;;;;;;;;33.00;24.80;;;;;;5034876;28;75448;-71
2021/05/18 16:05:05;;;;;;;;;;;33.70;24.20;;;;;;5035132;28;77460;-72
2021/05/18 16:07:34;;;;;;;;;;;34.30;23.90;;;;;;5034781;28;76764;-70
2021/05/18 16:09:59;;;;;;;;;;;33.90;23.90;;;;;;5033694;28;75596;-73
2021/05/18 16:12:25;;;;;;;;;;;33.20;24.40;;;;;;5033466;28;75702;-71
2021/05/18 16:14:50;;;;;;;;;;;32.90;24.90;;;;;;5032574;28;76281;-72
2021/05/18 16:17:20;;;;;;;;;;;32.80;24.90;;;;;;5033274;28;77918;-70
2021/05/18 16:19:47;;;;;;;;;;;32.60;25.00;;;;;;5033255;28;76584;-74
2021/05/18 16:22:12;;;;;;;;;;;32.30;24.90;;;;;;5051320;28;75740;-71
2021/05/18 16:24:38;;;;;;;;;;;31.90;25.10;;;;;;5051511;28;75696;-72
2021/05/18 16:27:04;;;;;;;;;;;31.50;25.30;;;;;;5033176;28;76071;-71
2021/05/18 16:29:31;;;;;;;;;;;31.30;25.50;;;;;;5033374;28;74690;-71
2021/05/18 16:31:56;;;;;;;;;;;31.20;25.60;;;;;;5051425;28;74999;-69
2021/05/18 16:34:22;;;;;;;;;;;31.40;25.40;;;;;;5051524;28;75366;-69
2021/05/18 16:36:47;;;;;;;;;;;31.60;24.70;;;;;;5051282;28;75337;-70
2021/05/18 16:39:15;;;;;;;;;;;31.80;24.70;;;;;;5032415;28;77964;-71
2021/05/18 16:41:42;;;;;;;;;;;32.60;24.30;;;;;;5051362;28;75044;-72
2021/05/18 16:44:09;;;;;;;;;;;33.70;22.80;;;;;;5032364;28;76265;-71
2021/05/18 16:46:35;;;;;;;;;;;34.50;22.40;;;;;;5032648;28;75431;-72
2021/05/18 16:49:00;;;;;;;;;;;35.30;21.60;;;;;;5032246;28;77240;-69
2021/05/18 16:51:26;;;;;;;;;;;35.40;21.30;;;;;;5032857;28;77829;-72
2021/05/18 16:53:53;;;;;;;;;;;34.80;21.60;;;;;;5050105;28;75131;-72
2021/05/18 16:56:19;;;;;;;;;;;33.80;22.40;;;;;;5032385;28;74664;-67
2021/05/18 16:58:45;;;;;;;;;;;33.20;22.90;;;;;;5033501;28;77369;-73
2021/05/18 17:01:11;;;;;;;;;;;32.90;23.20;;;;;;5032860;28;74633;-72
2021/05/18 17:03:36;;;;;;;;;;;32.50;23.50;;;;;;5051114;28;75661;-74
2021/05/18 17:06:02;;;;;;;;;;;32.30;24.00;;;;;;5032289;28;75333;-73
2021/05/18 17:08:28;;;;;;;;;;;32.00;24.10;;;;;;4976603;28;1552506;-72
2021/05/18 17:10:55;;;;;;;;;;;31.70;24.50;;;;;;5017571;28;77245;-74
2021/05/18 17:13:21;;;;;;;;;;;31.50;24.70;;;;;;5033651;28;75594;-72
2021/05/18 17:15:46;;;;;;;;;;;31.90;24.50;;;;;;5033686;28;78004;-73
2021/05/18 17:18:12;;;;;;;;;;;33.00;23.60;;;;;;5033676;28;76501;-70
2021/05/18 17:20:38;;;;;;;;;;;33.80;22.90;;;;;;5033225;28;77360;-67
2021/05/18 17:23:04;;;;;;;;;;;34.10;22.50;;;;;;5051806;28;75266;-74
2021/05/18 17:25:30;;;;;;;;;;;33.60;22.80;;;;;;5033624;28;78399;-70
2021/05/18 17:27:55;;;;;;;;;;;32.70;23.50;;;;;;5033628;28;76957;-70
2021/05/18 17:30:24;;;;;;;;;;;31.70;24.20;;;;;;5033785;28;75553;-71
2021/05/18 17:32:50;;;;;;;;;;;31.10;24.80;;;;;;5033713;28;77617;-64
2021/05/18 17:35:16;;;;;;;;;;;30.80;25.10;;;;;;5033645;28;75816;-69
2021/05/18 17:37:42;;;;;;;;;;;31.00;25.20;;;;;;5033682;28;74403;-63
2021/05/18 17:40:08;;;;;;;;;;;31.50;24.60;;;;;;5033606;28;76759;-68
2021/05/18 17:42:34;;;;;;;;;;;32.80;23.70;;;;;;5030105;28;77125;-65
2021/05/18 17:45:04;;;;;;;;;;;33.80;22.60;;;;;;5047292;28;74832;-64
2021/05/18 17:47:30;;;;;;;;;;;34.60;22.00;;;;;;5051915;28;75921;-64
2021/05/18 17:49:56;;;;;;;;;;;35.00;21.60;;;;;;5033792;28;76794;-66
2021/05/18 17:52:22;;;;;;;;;;;35.00;21.70;;;;;;5032575;28;76480;-66
2021/05/18 17:54:48;;;;;;;;;;;35.00;21.70;;;;;;5033388;28;75327;-66
2021/05/18 17:57:13;;;;;;;;;;;35.00;21.60;;;;;;5025702;28;77070;-66
2021/05/18 17:59:39;;;;;;;;;;;34.70;21.90;;;;;;5023946;28;77406;-65
2021/05/18 18:02:09;;;;;;;;;;;34.50;22.10;;;;;;5047311;27;76507;-62
2021/05/18 18:04:35;;;;;;;;;;;34.00;22.40;;;;;;5047168;27;75358;-63
2021/05/18 18:07:01;;;;;;;;;;;33.30;23.00;;;;;;5016690;28;77353;-64
2021/05/18 18:09:28;;;;;;;;;;;32.80;23.30;;;;;;5015995;28;75889;-64
2021/05/18 18:11:53;;;;;;;;;;;32.20;23.80;;;;;;5016495;28;76208;-63
2021/05/18 18:14:19;;;;;;;;;;;32.00;24.00;;;;;;5035192;28;75377;-64
2021/05/18 18:16:45;;;;;;;;;;;32.00;24.20;;;;;;5018533;28;77559;-65
2021/05/18 18:19:11;;;;;;;;;;;31.90;24.40;;;;;;5022044;28;74737;-69
2021/05/18 18:21:37;;;;;;;;;;;31.80;24.50;;;;;;5057780;27;75974;-66
2021/05/18 18:24:03;;;;;;;;;;;31.60;24.60;;;;;;5054693;28;75180;-64
2021/05/18 18:26:29;;;;;;;;;;;31.40;24.80;;;;;;5054620;28;75284;-65
2021/05/18 18:28:57;;;;;;;;;;;31.10;25.40;;;;;;5036202;28;76083;-70
2021/05/18 18:31:23;;;;;;;;;;;30.90;25.50;;;;;;5036428;28;75370;-67
2021/05/18 18:33:48;;;;;;;;;;;30.50;25.80;;;;;;5068931;27;77690;-66
2021/05/18 18:36:14;;;;;;;;;;;30.20;26.20;;;;;;5034484;28;77309;-66
2021/05/18 18:38:40;;;;;;;;;;;29.90;26.40;;;;;;5052959;28;75140;-68
2021/05/18 18:41:05;;;;;;;;;;;29.50;26.80;;;;;;5034595;28;77169;-65
2021/05/18 18:43:34;;;;;;;;;;;29.20;27.20;;;;;;5052868;28;74815;-67
2021/05/18 18:46:00;;;;;;;;;;;28.90;27.60;;;;;;5034555;28;75304;-65
2021/05/18 18:48:26;;;;;;;;;;;28.60;28.00;;;;;;5053056;28;74552;-68
2021/05/18 18:51:02;;;;;;;;;;;28.40;28.50;;;;;;5034215;28;74990;-65
2021/05/18 18:56:02;;;;;;;;;;;27.90;28.90;;;;;;5049443;28;75222;-67
2021/05/18 18:58:28;;;;;;;;;;;27.80;29.00;;;;;;5035730;28;76858;-66
2021/05/18 19:00:54;;;;;;;;;;;27.50;29.40;;;;;;5035769;28;77147;-67
2021/05/18 19:03:25;;;;;;;;;;;27.40;29.60;;;;;;5035985;28;76935;-68
2021/05/18 19:06:00;;;;;;;;;;;27.30;30.00;;;;;;5035893;28;74596;-68
2021/05/18 19:13:23;;;;;;;;;;;26.90;30.60;;;;;;5052896;28;75083;-68
2021/05/18 19:15:49;;;;;;;;;;;26.80;30.90;;;;;;5032568;28;76234;-72
2021/05/18 19:18:14;;;;;;;;;;;26.60;30.90;;;;;;5032683;28;77421;-71
2021/05/18 19:20:40;;;;;;;;;;;26.50;31.10;;;;;;5054058;28;75151;-72
2021/05/18 19:23:07;;;;;;;;;;;26.40;31.30;;;;;;5053728;28;75155;-70
2021/05/18 19:25:32;;;;;;;;;;;26.40;31.60;;;;;;5035357;28;76561;-70
2021/05/18 19:28:07;;;;;;;;;;;26.30;31.70;;;;;;5029062;28;76024;-72
2021/05/18 19:30:33;;;;;;;;;;;26.20;31.80;;;;;;5014920;28;76500;-67
2021/05/18 19:32:58;;;;;;;;;;;26.10;32.00;;;;;;5035356;28;75762;-65